sensor_id;sensor_type;location;lat;lon;timestamp;P1;durP1;ratioP1;P2;durP2;ratioP2
49223;SDS011;35050;51.316;5.994;2022-11-20T00:00:28;11.07;;;8.02;;
49223;SDS011;35050;51.316;5.994;2022-11-20T00:02:54;10.45;;;7.47;;
49223;SDS011;35050;51.316;5.994;2022-11-20T00:05:19;9.93;;;7.25;;
49223;SDS011;35050;51.316;5.994;2022-11-20T00:07:46;9.05;;;6.78;;
49223;SDS011;35050;51.316;5.994;2022-11-20T00:10:11;7.10;;;5.45;;
49223;SDS011;35050;51.316;5.994;2022-11-20T00:12:37;9.13;;;6.78;;
49223;SDS011;35050;51.316;5.994;2022-11-20T00:15:03;6.70;;;5.10;;
49223;SDS011;35050;51.316;5.994;2022-11-20T00:17:29;7.97;;;6.00;;
49223;SDS011;35050;51.316;5.994;2022-11-20T00:19:55;8.02;;;6.03;;
49223;SDS011;35050;51.316;5.994;2022-11-20T00:22:20;7.68;;;5.63;;
49223;SDS011;35050;51.316;5.994;2022-11-20T00:24:46;8.57;;;6.30;;
49223;SDS011;35050;51.316;5.994;2022-11-20T00:27:12;10.45;;;6.68;;
49223;SDS011;35050;51.316;5.994;2022-11-20T00:29:38;8.38;;;6.18;;
49223;SDS011;35050;51.316;5.994;2022-11-20T00:32:03;7.78;;;6.10;;
49223;SDS011;35050;51.316;5.994;2022-11-20T00:34:29;9.25;;;6.75;;
49223;SDS011;35050;51.316;5.994;2022-11-20T00:36:55;8.43;;;6.35;;
49223;SDS011;35050;51.316;5.994;2022-11-20T00:39:20;8.35;;;5.85;;
49223;SDS011;35050;51.316;5.994;2022-11-20T00:41:46;8.70;;;6.60;;
49223;SDS011;35050;51.316;5.994;2022-11-20T00:44:11;11.07;;;6.53;;
49223;SDS011;35050;51.316;5.994;2022-11-20T00:46:37;9.20;;;6.25;;
49223;SDS011;35050;51.316;5.994;2022-11-20T00:49:03;8.38;;;6.05;;
49223;SDS011;35050;51.316;5.994;2022-11-20T00:51:28;9.57;;;6.70;;
49223;SDS011;35050;51.316;5.994;2022-11-20T00:53:57;10.45;;;7.07;;
49223;SDS011;35050;51.316;5.994;2022-11-20T00:56:25;12.65;;;6.75;;
49223;SDS011;35050;51.316;5.994;2022-11-20T00:58:51;8.77;;;6.05;;
49223;SDS011;35050;51.316;5.994;2022-11-20T01:03:50;10.00;;;6.70;;
49223;SDS011;35050;51.316;5.994;2022-11-20T01:08:49;8.20;;;5.93;;
49223;SDS011;35050;51.316;5.994;2022-11-20T01:11:18;9.25;;;6.75;;
49223;SDS011;35050;51.316;5.994;2022-11-20T01:13:49;10.23;;;6.75;;
49223;SDS011;35050;51.316;5.994;2022-11-20T01:16:20;10.95;;;7.35;;
49223;SDS011;35050;51.316;5.994;2022-11-20T01:18:48;12.02;;;7.18;;
49223;SDS011;35050;51.316;5.994;2022-11-20T01:21:20;10.13;;;6.80;;
49223;SDS011;35050;51.316;5.994;2022-11-20T01:23:48;11.02;;;7.03;;
49223;SDS011;35050;51.316;5.994;2022-11-20T01:26:15;11.55;;;6.95;;
49223;SDS011;35050;51.316;5.994;2022-11-20T01:28:42;10.60;;;6.90;;
49223;SDS011;35050;51.316;5.994;2022-11-20T01:31:25;11.07;;;6.90;;
49223;SDS011;35050;51.316;5.994;2022-11-20T01:33:57;11.35;;;7.03;;
49223;SDS011;35050;51.316;5.994;2022-11-20T01:36:25;10.90;;;6.65;;
49223;SDS011;35050;51.316;5.994;2022-11-20T01:38:52;11.35;;;6.72;;
49223;SDS011;35050;51.316;5.994;2022-11-20T01:41:23;10.65;;;7.35;;
49223;SDS011;35050;51.316;5.994;2022-11-20T01:44:08;12.45;;;7.57;;
49223;SDS011;35050;51.316;5.994;2022-11-20T01:46:37;9.63;;;6.28;;
49223;SDS011;35050;51.316;5.994;2022-11-20T01:49:10;9.63;;;6.55;;
49223;SDS011;35050;51.316;5.994;2022-11-20T01:52:20;10.25;;;7.10;;
49223;SDS011;35050;51.316;5.994;2022-11-20T01:57:52;9.63;;;6.53;;
49223;SDS011;35050;51.316;5.994;2022-11-20T02:00:18;8.63;;;5.80;;
49223;SDS011;35050;51.316;5.994;2022-11-20T02:02:50;8.52;;;5.88;;
49223;SDS011;35050;51.316;5.994;2022-11-20T02:07:48;9.25;;;5.93;;
49223;SDS011;35050;51.316;5.994;2022-11-20T02:10:15;10.07;;;6.25;;
49223;SDS011;35050;51.316;5.994;2022-11-20T02:12:41;11.35;;;6.55;;
49223;SDS011;35050;51.316;5.994;2022-11-20T02:15:25;8.70;;;6.22;;
49223;SDS011;35050;51.316;5.994;2022-11-20T02:17:51;8.80;;;5.93;;
49223;SDS011;35050;51.316;5.994;2022-11-20T02:20:17;8.63;;;5.80;;
49223;SDS011;35050;51.316;5.994;2022-11-20T02:22:47;9.82;;;6.47;;
49223;SDS011;35050;51.316;5.994;2022-11-20T02:25:19;9.68;;;6.50;;
49223;SDS011;35050;51.316;5.994;2022-11-20T02:27:45;7.85;;;5.97;;
49223;SDS011;35050;51.316;5.994;2022-11-20T02:30:11;8.32;;;6.05;;
49223;SDS011;35050;51.316;5.994;2022-11-20T02:32:38;8.50;;;5.85;;
49223;SDS011;35050;51.316;5.994;2022-11-20T02:35:08;8.55;;;6.07;;
49223;SDS011;35050;51.316;5.994;2022-11-20T02:40:39;6.88;;;5.55;;
49223;SDS011;35050;51.316;5.994;2022-11-20T02:43:05;9.55;;;6.63;;
49223;SDS011;35050;51.316;5.994;2022-11-20T02:45:31;9.77;;;6.85;;
49223;SDS011;35050;51.316;5.994;2022-11-20T02:47:57;9.45;;;6.32;;
49223;SDS011;35050;51.316;5.994;2022-11-20T02:50:22;8.68;;;6.90;;
49223;SDS011;35050;51.316;5.994;2022-11-20T02:52:48;8.43;;;6.10;;
49223;SDS011;35050;51.316;5.994;2022-11-20T02:55:13;9.25;;;6.47;;
49223;SDS011;35050;51.316;5.994;2022-11-20T02:57:39;9.73;;;6.38;;
49223;SDS011;35050;51.316;5.994;2022-11-20T03:00:05;7.82;;;6.10;;
49223;SDS011;35050;51.316;5.994;2022-11-20T03:02:32;9.00;;;5.97;;
49223;SDS011;35050;51.316;5.994;2022-11-20T03:04:58;9.10;;;6.40;;
49223;SDS011;35050;51.316;5.994;2022-11-20T03:07:24;9.75;;;6.63;;
49223;SDS011;35050;51.316;5.994;2022-11-20T03:09:50;9.55;;;6.80;;
49223;SDS011;35050;51.316;5.994;2022-11-20T03:12:16;8.15;;;6.03;;
49223;SDS011;35050;51.316;5.994;2022-11-20T03:14:41;9.73;;;7.13;;
49223;SDS011;35050;51.316;5.994;2022-11-20T03:17:07;7.75;;;6.10;;
49223;SDS011;35050;51.316;5.994;2022-11-20T03:19:33;7.93;;;6.18;;
49223;SDS011;35050;51.316;5.994;2022-11-20T03:21:59;9.98;;;6.95;;
49223;SDS011;35050;51.316;5.994;2022-11-20T03:24:25;8.90;;;6.45;;
49223;SDS011;35050;51.316;5.994;2022-11-20T03:26:51;8.68;;;6.45;;
49223;SDS011;35050;51.316;5.994;2022-11-20T03:29:16;8.63;;;6.25;;
49223;SDS011;35050;51.316;5.994;2022-11-20T03:31:42;8.90;;;6.07;;
49223;SDS011;35050;51.316;5.994;2022-11-20T03:34:08;7.60;;;5.40;;
49223;SDS011;35050;51.316;5.994;2022-11-20T03:36:39;8.68;;;6.03;;
49223;SDS011;35050;51.316;5.994;2022-11-20T03:39:07;9.30;;;6.53;;
49223;SDS011;35050;51.316;5.994;2022-11-20T03:41:37;7.82;;;5.90;;
49223;SDS011;35050;51.316;5.994;2022-11-20T03:44:05;8.63;;;6.35;;
49223;SDS011;35050;51.316;5.994;2022-11-20T03:46:33;8.43;;;6.35;;
49223;SDS011;35050;51.316;5.994;2022-11-20T03:48:59;9.32;;;6.05;;
49223;SDS011;35050;51.316;5.994;2022-11-20T03:51:26;8.10;;;5.75;;
49223;SDS011;35050;51.316;5.994;2022-11-20T03:53:53;9.45;;;7.07;;
49223;SDS011;35050;51.316;5.994;2022-11-20T03:56:26;9.00;;;6.95;;
49223;SDS011;35050;51.316;5.994;2022-11-20T03:58:53;10.40;;;6.70;;
49223;SDS011;35050;51.316;5.994;2022-11-20T04:01:20;13.23;;;8.00;;
49223;SDS011;35050;51.316;5.994;2022-11-20T04:03:49;8.27;;;6.40;;
49223;SDS011;35050;51.316;5.994;2022-11-20T04:06:19;9.02;;;6.80;;
49223;SDS011;35050;51.316;5.994;2022-11-20T04:08:54;9.43;;;6.22;;
49223;SDS011;35050;51.316;5.994;2022-11-20T04:11:22;9.27;;;6.47;;
49223;SDS011;35050;51.316;5.994;2022-11-20T04:13:50;9.05;;;6.47;;
49223;SDS011;35050;51.316;5.994;2022-11-20T04:16:17;10.90;;;7.13;;
49223;SDS011;35050;51.316;5.994;2022-11-20T04:18:44;8.85;;;6.43;;
49223;SDS011;35050;51.316;5.994;2022-11-20T04:21:10;8.55;;;6.40;;
49223;SDS011;35050;51.316;5.994;2022-11-20T04:23:36;9.98;;;6.93;;
49223;SDS011;35050;51.316;5.994;2022-11-20T04:26:08;9.15;;;6.15;;
49223;SDS011;35050;51.316;5.994;2022-11-20T04:28:35;8.80;;;5.93;;
49223;SDS011;35050;51.316;5.994;2022-11-20T04:31:15;9.68;;;7.20;;
49223;SDS011;35050;51.316;5.994;2022-11-20T04:33:44;8.30;;;6.10;;
49223;SDS011;35050;51.316;5.994;2022-11-20T04:36:14;11.32;;;6.68;;
49223;SDS011;35050;51.316;5.994;2022-11-20T04:38:44;8.02;;;6.13;;
49223;SDS011;35050;51.316;5.994;2022-11-20T04:41:13;8.10;;;6.03;;
49223;SDS011;35050;51.316;5.994;2022-11-20T04:43:40;8.05;;;5.75;;
49223;SDS011;35050;51.316;5.994;2022-11-20T04:46:06;9.07;;;6.68;;
49223;SDS011;35050;51.316;5.994;2022-11-20T04:48:32;9.52;;;6.32;;
49223;SDS011;35050;51.316;5.994;2022-11-20T04:51:02;9.27;;;6.18;;
49223;SDS011;35050;51.316;5.994;2022-11-20T04:53:28;8.77;;;6.13;;
49223;SDS011;35050;51.316;5.994;2022-11-20T04:55:59;7.30;;;5.88;;
49223;SDS011;35050;51.316;5.994;2022-11-20T04:58:25;7.55;;;5.93;;
49223;SDS011;35050;51.316;5.994;2022-11-20T05:00:51;7.93;;;5.65;;
49223;SDS011;35050;51.316;5.994;2022-11-20T05:03:16;8.40;;;5.95;;
49223;SDS011;35050;51.316;5.994;2022-11-20T05:05:42;8.63;;;6.07;;
49223;SDS011;35050;51.316;5.994;2022-11-20T05:08:08;7.25;;;5.75;;
49223;SDS011;35050;51.316;5.994;2022-11-20T05:10:33;7.10;;;5.63;;
49223;SDS011;35050;51.316;5.994;2022-11-20T05:12:59;8.02;;;5.80;;
49223;SDS011;35050;51.316;5.994;2022-11-20T05:15:24;8.15;;;6.00;;
49223;SDS011;35050;51.316;5.994;2022-11-20T05:17:51;7.70;;;5.40;;
49223;SDS011;35050;51.316;5.994;2022-11-20T05:20:17;8.63;;;5.93;;
49223;SDS011;35050;51.316;5.994;2022-11-20T05:22:43;8.40;;;6.15;;
49223;SDS011;35050;51.316;5.994;2022-11-20T05:25:09;8.80;;;6.13;;
49223;SDS011;35050;51.316;5.994;2022-11-20T05:27:36;9.13;;;6.63;;
49223;SDS011;35050;51.316;5.994;2022-11-20T05:30:02;7.82;;;5.47;;
49223;SDS011;35050;51.316;5.994;2022-11-20T05:32:29;9.30;;;6.10;;
49223;SDS011;35050;51.316;5.994;2022-11-20T05:34:54;8.02;;;6.05;;
49223;SDS011;35050;51.316;5.994;2022-11-20T05:37:20;8.57;;;6.32;;
49223;SDS011;35050;51.316;5.994;2022-11-20T05:39:45;10.55;;;6.43;;
49223;SDS011;35050;51.316;5.994;2022-11-20T05:42:11;9.15;;;6.47;;
49223;SDS011;35050;51.316;5.994;2022-11-20T05:44:55;9.93;;;6.40;;
49223;SDS011;35050;51.316;5.994;2022-11-20T05:47:24;7.32;;;5.40;;
49223;SDS011;35050;51.316;5.994;2022-11-20T05:49:51;8.15;;;5.80;;
49223;SDS011;35050;51.316;5.994;2022-11-20T05:52:17;8.98;;;6.50;;
49223;SDS011;35050;51.316;5.994;2022-11-20T05:54:42;8.00;;;5.40;;
49223;SDS011;35050;51.316;5.994;2022-11-20T05:57:08;7.57;;;5.60;;
49223;SDS011;35050;51.316;5.994;2022-11-20T05:59:34;8.18;;;6.32;;
49223;SDS011;35050;51.316;5.994;2022-11-20T06:01:59;7.57;;;5.60;;
49223;SDS011;35050;51.316;5.994;2022-11-20T06:04:25;6.95;;;5.30;;
49223;SDS011;35050;51.316;5.994;2022-11-20T06:06:50;7.15;;;5.85;;
49223;SDS011;35050;51.316;5.994;2022-11-20T06:09:16;7.63;;;5.43;;
49223;SDS011;35050;51.316;5.994;2022-11-20T06:11:42;7.55;;;5.70;;
49223;SDS011;35050;51.316;5.994;2022-11-20T06:14:07;8.30;;;5.82;;
49223;SDS011;35050;51.316;5.994;2022-11-20T06:16:33;8.23;;;6.30;;
49223;SDS011;35050;51.316;5.994;2022-11-20T06:18:58;6.75;;;5.45;;
49223;SDS011;35050;51.316;5.994;2022-11-20T06:21:24;6.88;;;5.63;;
49223;SDS011;35050;51.316;5.994;2022-11-20T06:23:50;7.53;;;6.00;;
49223;SDS011;35050;51.316;5.994;2022-11-20T06:26:24;8.30;;;6.10;;
49223;SDS011;35050;51.316;5.994;2022-11-20T06:28:51;8.85;;;6.13;;
49223;SDS011;35050;51.316;5.994;2022-11-20T06:31:19;7.05;;;5.53;;
49223;SDS011;35050;51.316;5.994;2022-11-20T06:33:46;8.52;;;5.72;;
49223;SDS011;35050;51.316;5.994;2022-11-20T06:36:13;7.10;;;5.28;;
49223;SDS011;35050;51.316;5.994;2022-11-20T06:38:40;7.00;;;4.93;;
49223;SDS011;35050;51.316;5.994;2022-11-20T06:41:10;7.40;;;5.82;;
49223;SDS011;35050;51.316;5.994;2022-11-20T06:43:43;7.53;;;6.03;;
49223;SDS011;35050;51.316;5.994;2022-11-20T06:46:10;7.78;;;6.28;;
49223;SDS011;35050;51.316;5.994;2022-11-20T06:48:36;8.73;;;5.82;;
49223;SDS011;35050;51.316;5.994;2022-11-20T06:51:03;7.63;;;5.40;;
49223;SDS011;35050;51.316;5.994;2022-11-20T06:53:29;7.78;;;5.80;;
49223;SDS011;35050;51.316;5.994;2022-11-20T06:55:55;8.35;;;5.63;;
49223;SDS011;35050;51.316;5.994;2022-11-20T06:58:23;8.80;;;5.35;;
49223;SDS011;35050;51.316;5.994;2022-11-20T07:00:50;7.70;;;5.63;;
49223;SDS011;35050;51.316;5.994;2022-11-20T07:03:16;8.43;;;6.15;;
49223;SDS011;35050;51.316;5.994;2022-11-20T07:05:42;7.80;;;5.57;;
49223;SDS011;35050;51.316;5.994;2022-11-20T07:08:08;8.90;;;6.60;;
49223;SDS011;35050;51.316;5.994;2022-11-20T07:10:33;8.75;;;6.28;;
49223;SDS011;35050;51.316;5.994;2022-11-20T07:12:59;8.27;;;6.22;;
49223;SDS011;35050;51.316;5.994;2022-11-20T07:15:25;7.75;;;6.13;;
49223;SDS011;35050;51.316;5.994;2022-11-20T07:17:52;8.10;;;5.75;;
49223;SDS011;35050;51.316;5.994;2022-11-20T07:20:17;7.40;;;5.35;;
49223;SDS011;35050;51.316;5.994;2022-11-20T07:22:43;9.65;;;6.97;;
49223;SDS011;35050;51.316;5.994;2022-11-20T07:25:09;9.45;;;7.53;;
49223;SDS011;35050;51.316;5.994;2022-11-20T07:27:35;9.77;;;7.43;;
49223;SDS011;35050;51.316;5.994;2022-11-20T07:30:01;11.27;;;7.80;;
49223;SDS011;35050;51.316;5.994;2022-11-20T07:32:27;10.80;;;7.30;;
49223;SDS011;35050;51.316;5.994;2022-11-20T07:34:53;8.70;;;6.90;;
49223;SDS011;35050;51.316;5.994;2022-11-20T07:37:19;8.88;;;6.43;;
49223;SDS011;35050;51.316;5.994;2022-11-20T07:39:44;8.73;;;6.53;;
49223;SDS011;35050;51.316;5.994;2022-11-20T07:42:10;9.35;;;7.18;;
49223;SDS011;35050;51.316;5.994;2022-11-20T07:44:37;9.25;;;6.70;;
49223;SDS011;35050;51.316;5.994;2022-11-20T07:47:03;9.27;;;6.53;;
49223;SDS011;35050;51.316;5.994;2022-11-20T07:49:29;13.02;;;7.50;;
49223;SDS011;35050;51.316;5.994;2022-11-20T07:51:54;10.77;;;7.82;;
49223;SDS011;35050;51.316;5.994;2022-11-20T07:54:20;9.95;;;7.38;;
49223;SDS011;35050;51.316;5.994;2022-11-20T07:56:46;9.50;;;7.20;;
49223;SDS011;35050;51.316;5.994;2022-11-20T07:59:13;11.32;;;7.47;;
49223;SDS011;35050;51.316;5.994;2022-11-20T08:01:39;9.68;;;7.13;;
49223;SDS011;35050;51.316;5.994;2022-11-20T08:04:05;10.73;;;7.32;;
49223;SDS011;35050;51.316;5.994;2022-11-20T08:06:31;8.95;;;7.13;;
49223;SDS011;35050;51.316;5.994;2022-11-20T08:08:57;8.50;;;6.32;;
49223;SDS011;35050;51.316;5.994;2022-11-20T08:11:22;7.97;;;6.40;;
49223;SDS011;35050;51.316;5.994;2022-11-20T08:14:07;9.77;;;6.63;;
49223;SDS011;35050;51.316;5.994;2022-11-20T08:16:39;11.10;;;6.80;;
49223;SDS011;35050;51.316;5.994;2022-11-20T08:19:06;8.93;;;6.53;;
49223;SDS011;35050;51.316;5.994;2022-11-20T08:21:32;8.23;;;6.53;;
49223;SDS011;35050;51.316;5.994;2022-11-20T08:23:58;9.32;;;6.55;;
49223;SDS011;35050;51.316;5.994;2022-11-20T08:26:24;10.20;;;7.35;;
49223;SDS011;35050;51.316;5.994;2022-11-20T08:28:54;8.48;;;6.47;;
49223;SDS011;35050;51.316;5.994;2022-11-20T08:31:21;8.63;;;6.75;;
49223;SDS011;35050;51.316;5.994;2022-11-20T08:33:48;9.82;;;7.55;;
49223;SDS011;35050;51.316;5.994;2022-11-20T08:36:14;9.00;;;7.10;;
49223;SDS011;35050;51.316;5.994;2022-11-20T08:38:39;10.82;;;7.55;;
49223;SDS011;35050;51.316;5.994;2022-11-20T08:41:05;10.88;;;7.32;;
49223;SDS011;35050;51.316;5.994;2022-11-20T08:43:50;7.88;;;6.63;;
49223;SDS011;35050;51.316;5.994;2022-11-20T08:46:17;10.98;;;6.82;;
49223;SDS011;35050;51.316;5.994;2022-11-20T08:48:43;9.15;;;6.90;;
49223;SDS011;35050;51.316;5.994;2022-11-20T08:51:09;8.35;;;6.25;;
49223;SDS011;35050;51.316;5.994;2022-11-20T08:53:35;8.30;;;5.88;;
49223;SDS011;35050;51.316;5.994;2022-11-20T08:56:01;9.13;;;6.15;;
49223;SDS011;35050;51.316;5.994;2022-11-20T08:58:27;10.73;;;7.32;;
49223;SDS011;35050;51.316;5.994;2022-11-20T09:00:53;9.15;;;6.97;;
49223;SDS011;35050;51.316;5.994;2022-11-20T09:03:18;11.57;;;6.70;;
49223;SDS011;35050;51.316;5.994;2022-11-20T09:05:44;9.65;;;6.28;;
49223;SDS011;35050;51.316;5.994;2022-11-20T09:08:10;10.63;;;7.45;;
49223;SDS011;35050;51.316;5.994;2022-11-20T09:10:36;9.63;;;7.20;;
49223;SDS011;35050;51.316;5.994;2022-11-20T09:13:04;10.18;;;7.32;;
49223;SDS011;35050;51.316;5.994;2022-11-20T09:15:30;11.75;;;8.25;;
49223;SDS011;35050;51.316;5.994;2022-11-20T09:17:57;14.32;;;9.57;;
49223;SDS011;35050;51.316;5.994;2022-11-20T09:20:24;12.32;;;8.50;;
49223;SDS011;35050;51.316;5.994;2022-11-20T09:22:50;15.43;;;10.13;;
49223;SDS011;35050;51.316;5.994;2022-11-20T09:25:16;14.68;;;10.23;;
49223;SDS011;35050;51.316;5.994;2022-11-20T09:27:42;11.95;;;8.60;;
49223;SDS011;35050;51.316;5.994;2022-11-20T09:30:10;14.25;;;10.13;;
49223;SDS011;35050;51.316;5.994;2022-11-20T09:32:41;14.57;;;9.13;;
49223;SDS011;35050;51.316;5.994;2022-11-20T09:35:07;14.02;;;9.75;;
49223;SDS011;35050;51.316;5.994;2022-11-20T09:37:33;11.73;;;8.73;;
49223;SDS011;35050;51.316;5.994;2022-11-20T09:39:59;15.02;;;9.60;;
49223;SDS011;35050;51.316;5.994;2022-11-20T09:47:48;13.35;;;8.82;;
49223;SDS011;35050;51.316;5.994;2022-11-20T09:55:36;17.08;;;10.68;;
49223;SDS011;35050;51.316;5.994;2022-11-20T09:58:05;18.50;;;11.27;;
49223;SDS011;35050;51.316;5.994;2022-11-20T10:00:32;19.08;;;11.23;;
49223;SDS011;35050;51.316;5.994;2022-11-20T10:05:52;14.68;;;9.45;;
49223;SDS011;35050;51.316;5.994;2022-11-20T10:08:21;18.25;;;10.85;;
49223;SDS011;35050;51.316;5.994;2022-11-20T10:10:52;18.40;;;11.13;;
49223;SDS011;35050;51.316;5.994;2022-11-20T10:13:31;17.40;;;10.75;;
49223;SDS011;35050;51.316;5.994;2022-11-20T10:16:13;14.75;;;9.77;;
49223;SDS011;35050;51.316;5.994;2022-11-20T10:19:26;16.90;;;10.75;;
49223;SDS011;35050;51.316;5.994;2022-11-20T10:26:56;22.58;;;13.95;;
49223;SDS011;35050;51.316;5.994;2022-11-20T10:30:00;25.15;;;13.77;;
49223;SDS011;35050;51.316;5.994;2022-11-20T10:32:34;21.10;;;12.52;;
49223;SDS011;35050;51.316;5.994;2022-11-20T10:37:29;29.00;;;15.82;;
49223;SDS011;35050;51.316;5.994;2022-11-20T10:47:48;28.65;;;16.60;;
49223;SDS011;35050;51.316;5.994;2022-11-20T10:50:16;28.02;;;16.00;;
49223;SDS011;35050;51.316;5.994;2022-11-20T10:58:16;29.15;;;17.15;;
49223;SDS011;35050;51.316;5.994;2022-11-20T11:00:45;26.48;;;16.27;;
49223;SDS011;35050;51.316;5.994;2022-11-20T11:03:26;28.98;;;17.13;;
49223;SDS011;35050;51.316;5.994;2022-11-20T11:08:31;33.97;;;19.08;;
49223;SDS011;35050;51.316;5.994;2022-11-20T11:11:02;30.13;;;19.55;;
49223;SDS011;35050;51.316;5.994;2022-11-20T11:13:46;31.83;;;19.25;;
49223;SDS011;35050;51.316;5.994;2022-11-20T11:16:25;34.97;;;20.55;;
49223;SDS011;35050;51.316;5.994;2022-11-20T11:18:51;28.88;;;17.10;;
49223;SDS011;35050;51.316;5.994;2022-11-20T11:21:28;27.50;;;16.63;;
49223;SDS011;35050;51.316;5.994;2022-11-20T11:24:00;25.70;;;16.45;;
49223;SDS011;35050;51.316;5.994;2022-11-20T11:26:29;26.73;;;16.27;;
49223;SDS011;35050;51.316;5.994;2022-11-20T11:29:02;27.45;;;17.02;;
49223;SDS011;35050;51.316;5.994;2022-11-20T11:36:37;24.25;;;15.15;;
49223;SDS011;35050;51.316;5.994;2022-11-20T11:39:03;24.00;;;15.80;;
49223;SDS011;35050;51.316;5.994;2022-11-20T11:41:34;25.73;;;16.13;;
49223;SDS011;35050;51.316;5.994;2022-11-20T11:44:19;23.65;;;15.55;;
49223;SDS011;35050;51.316;5.994;2022-11-20T11:47:11;23.98;;;15.68;;
49223;SDS011;35050;51.316;5.994;2022-11-20T11:50:00;25.52;;;16.23;;
49223;SDS011;35050;51.316;5.994;2022-11-20T11:55:07;22.45;;;14.15;;
49223;SDS011;35050;51.316;5.994;2022-11-20T11:57:56;21.77;;;13.27;;
49223;SDS011;35050;51.316;5.994;2022-11-20T12:00:30;25.05;;;14.98;;
49223;SDS011;35050;51.316;5.994;2022-11-20T12:05:47;19.33;;;11.95;;
49223;SDS011;35050;51.316;5.994;2022-11-20T12:08:59;19.27;;;11.90;;
49223;SDS011;35050;51.316;5.994;2022-11-20T12:14:37;17.70;;;10.98;;
49223;SDS011;35050;51.316;5.994;2022-11-20T12:16:51;18.15;;;10.60;;
49223;SDS011;35050;51.316;5.994;2022-11-20T12:19:18;17.83;;;11.40;;
49223;SDS011;35050;51.316;5.994;2022-11-20T12:24:33;20.95;;;13.10;;
49223;SDS011;35050;51.316;5.994;2022-11-20T12:36:02;18.70;;;12.45;;
49223;SDS011;35050;51.316;5.994;2022-11-20T12:44:30;16.52;;;12.02;;
49223;SDS011;35050;51.316;5.994;2022-11-20T12:50:28;21.05;;;13.63;;
49223;SDS011;35050;51.316;5.994;2022-11-20T12:53:04;22.70;;;13.88;;
49223;SDS011;35050;51.316;5.994;2022-11-20T13:01:04;22.10;;;13.57;;
49223;SDS011;35050;51.316;5.994;2022-11-20T13:07:01;18.50;;;11.80;;
49223;SDS011;35050;51.316;5.994;2022-11-20T13:09:29;19.60;;;13.75;;
49223;SDS011;35050;51.316;5.994;2022-11-20T13:14:53;20.70;;;13.82;;
49223;SDS011;35050;51.316;5.994;2022-11-20T13:17:36;23.00;;;15.48;;
49223;SDS011;35050;51.316;5.994;2022-11-20T13:20:11;23.77;;;14.57;;
49223;SDS011;35050;51.316;5.994;2022-11-20T13:22:43;21.83;;;14.88;;
49223;SDS011;35050;51.316;5.994;2022-11-20T13:25:32;21.05;;;12.95;;
49223;SDS011;35050;51.316;5.994;2022-11-20T13:30:35;35.60;;;20.13;;
49223;SDS011;35050;51.316;5.994;2022-11-20T13:36:00;32.38;;;18.63;;
49223;SDS011;35050;51.316;5.994;2022-11-20T13:38:27;28.65;;;17.27;;
49223;SDS011;35050;51.316;5.994;2022-11-20T13:41:07;26.15;;;16.20;;
49223;SDS011;35050;51.316;5.994;2022-11-20T13:43:52;28.55;;;17.52;;
49223;SDS011;35050;51.316;5.994;2022-11-20T13:46:18;26.42;;;17.60;;
49223;SDS011;35050;51.316;5.994;2022-11-20T13:48:49;28.25;;;17.60;;
49223;SDS011;35050;51.316;5.994;2022-11-20T14:02:17;32.63;;;20.23;;
49223;SDS011;35050;51.316;5.994;2022-11-20T14:04:46;28.77;;;19.38;;
49223;SDS011;35050;51.316;5.994;2022-11-20T14:07:16;26.95;;;17.17;;
49223;SDS011;35050;51.316;5.994;2022-11-20T14:09:53;29.60;;;19.02;;
49223;SDS011;35050;51.316;5.994;2022-11-20T14:12:38;26.27;;;17.50;;
49223;SDS011;35050;51.316;5.994;2022-11-20T14:15:04;26.17;;;17.77;;
49223;SDS011;35050;51.316;5.994;2022-11-20T14:17:31;25.25;;;16.45;;
49223;SDS011;35050;51.316;5.994;2022-11-20T14:20:04;25.48;;;16.42;;
49223;SDS011;35050;51.316;5.994;2022-11-20T14:22:32;29.75;;;18.10;;
49223;SDS011;35050;51.316;5.994;2022-11-20T14:27:41;25.75;;;17.45;;
49223;SDS011;35050;51.316;5.994;2022-11-20T14:30:15;22.92;;;15.38;;
49223;SDS011;35050;51.316;5.994;2022-11-20T14:32:46;24.95;;;15.95;;
49223;SDS011;35050;51.316;5.994;2022-11-20T14:38:00;22.98;;;14.63;;
49223;SDS011;35050;51.316;5.994;2022-11-20T14:40:31;27.08;;;15.82;;
49223;SDS011;35050;51.316;5.994;2022-11-20T14:43:00;29.70;;;17.35;;
49223;SDS011;35050;51.316;5.994;2022-11-20T14:45:27;25.08;;;15.82;;
49223;SDS011;35050;51.316;5.994;2022-11-20T14:47:54;18.92;;;13.32;;
49223;SDS011;35050;51.316;5.994;2022-11-20T14:50:23;22.98;;;15.48;;
49223;SDS011;35050;51.316;5.994;2022-11-20T14:52:51;25.55;;;15.50;;
49223;SDS011;35050;51.316;5.994;2022-11-20T14:57:58;17.13;;;11.38;;
49223;SDS011;35050;51.316;5.994;2022-11-20T15:00:25;21.63;;;12.75;;
49223;SDS011;35050;51.316;5.994;2022-11-20T15:02:52;18.48;;;12.38;;
49223;SDS011;35050;51.316;5.994;2022-11-20T15:05:19;20.55;;;13.13;;
49223;SDS011;35050;51.316;5.994;2022-11-20T15:07:48;16.83;;;10.70;;
49223;SDS011;35050;51.316;5.994;2022-11-20T15:10:30;16.63;;;10.98;;
49223;SDS011;35050;51.316;5.994;2022-11-20T15:12:58;13.77;;;9.68;;
49223;SDS011;35050;51.316;5.994;2022-11-20T15:18:04;16.77;;;10.02;;
49223;SDS011;35050;51.316;5.994;2022-11-20T15:20:30;16.50;;;10.20;;
49223;SDS011;35050;51.316;5.994;2022-11-20T15:22:58;21.67;;;14.80;;
49223;SDS011;35050;51.316;5.994;2022-11-20T15:25:23;21.38;;;13.75;;
49223;SDS011;35050;51.316;5.994;2022-11-20T15:27:51;21.20;;;13.95;;
49223;SDS011;35050;51.316;5.994;2022-11-20T15:30:20;20.55;;;12.55;;
49223;SDS011;35050;51.316;5.994;2022-11-20T15:32:47;19.67;;;13.02;;
49223;SDS011;35050;51.316;5.994;2022-11-20T15:35:14;17.48;;;11.77;;
49223;SDS011;35050;51.316;5.994;2022-11-20T15:37:40;18.15;;;12.48;;
49223;SDS011;35050;51.316;5.994;2022-11-20T15:40:06;18.00;;;11.27;;
49223;SDS011;35050;51.316;5.994;2022-11-20T15:42:33;19.35;;;12.27;;
49223;SDS011;35050;51.316;5.994;2022-11-20T15:44:59;22.27;;;14.52;;
49223;SDS011;35050;51.316;5.994;2022-11-20T15:47:29;21.25;;;13.95;;
49223;SDS011;35050;51.316;5.994;2022-11-20T15:49:57;19.80;;;13.55;;
49223;SDS011;35050;51.316;5.994;2022-11-20T15:52:23;16.67;;;12.20;;
49223;SDS011;35050;51.316;5.994;2022-11-20T15:54:48;18.33;;;12.38;;
49223;SDS011;35050;51.316;5.994;2022-11-20T15:57:14;18.17;;;13.00;;
49223;SDS011;35050;51.316;5.994;2022-11-20T15:59:40;17.27;;;12.10;;
49223;SDS011;35050;51.316;5.994;2022-11-20T16:02:12;18.67;;;12.63;;
49223;SDS011;35050;51.316;5.994;2022-11-20T16:04:39;19.35;;;12.52;;
49223;SDS011;35050;51.316;5.994;2022-11-20T16:07:05;19.38;;;12.07;;
49223;SDS011;35050;51.316;5.994;2022-11-20T16:09:31;17.17;;;11.68;;
49223;SDS011;35050;51.316;5.994;2022-11-20T16:11:57;16.45;;;10.93;;
49223;SDS011;35050;51.316;5.994;2022-11-20T16:14:24;19.15;;;12.77;;
49223;SDS011;35050;51.316;5.994;2022-11-20T16:17:09;20.05;;;13.13;;
49223;SDS011;35050;51.316;5.994;2022-11-20T16:19:34;19.23;;;11.50;;
49223;SDS011;35050;51.316;5.994;2022-11-20T16:22:00;18.58;;;11.55;;
49223;SDS011;35050;51.316;5.994;2022-11-20T16:24:26;14.90;;;10.43;;
49223;SDS011;35050;51.316;5.994;2022-11-20T16:26:55;15.35;;;10.63;;
49223;SDS011;35050;51.316;5.994;2022-11-20T16:29:20;15.52;;;11.05;;
49223;SDS011;35050;51.316;5.994;2022-11-20T16:31:46;16.55;;;11.00;;
49223;SDS011;35050;51.316;5.994;2022-11-20T16:34:12;14.98;;;9.80;;
49223;SDS011;35050;51.316;5.994;2022-11-20T16:36:40;15.23;;;9.93;;
49223;SDS011;35050;51.316;5.994;2022-11-20T16:39:07;12.05;;;8.32;;
49223;SDS011;35050;51.316;5.994;2022-11-20T16:41:33;14.00;;;9.15;;
49223;SDS011;35050;51.316;5.994;2022-11-20T16:44:00;14.55;;;9.70;;
49223;SDS011;35050;51.316;5.994;2022-11-20T16:46:27;12.48;;;9.02;;
49223;SDS011;35050;51.316;5.994;2022-11-20T16:49:04;11.60;;;7.75;;